Time;durP1;ratioP1;P1;durP2;ratioP2;P2;SDS_P1;SDS_P2;PMS_P1;PMS_P2;Temp;Humidity;BMP_temperature;BMP_pressure;BME280_temperature;BME280_humidity;BME280_pressure;Samples;Min_cycle;Max_cycle;Signal;HPM_P1;HPM_P2
2022/11/17 00:01:24;;;;;;;2.70;1.60;;;;;;;;;;5081278;28;20040;-60
2022/11/17 00:03:51;;;;;;;2.03;1.40;;;;;;;;;;5090727;28;20024;-60
2022/11/17 00:06:21;;;;;;;2.53;1.57;;;;;;;;;;5092756;28;20158;-60
2022/11/17 00:08:48;;;;;;;2.60;1.80;;;;;;;;;;5092568;28;20494;-61
2022/11/17 00:11:15;;;;;;;2.33;1.30;;;;;;;;;;5092348;28;20023;-60
2022/11/17 00:16:27;;;;;;;2.73;1.73;;;;;;;;;;5088394;28;20047;-59
2022/11/17 00:21:39;;;;;;;2.73;1.83;;;;;;;;;;5066939;28;20187;-60
2022/11/17 00:24:06;;;;;;;2.53;1.60;;;;;;;;;;5066801;28;20048;-59
2022/11/17 00:27:00;;;;;;;1.83;1.30;;;;;;;;;;5071003;28;20041;-60
2022/11/17 00:29:22;;;;;;;2.83;1.87;;;;;;;;;;5072261;28;20068;-61
2022/11/17 00:34:33;;;;;;;;;;;;;;;;;;5083904;28;20051;-60
2022/11/17 00:36:59;;;;;;;1.67;1.00;;;;;;;;;;5092014;28;20002;-60
2022/11/17 00:39:26;;;;;;;2.57;1.63;;;;;;;;;;5087261;28;20031;-61
2022/11/17 00:41:53;;;;;;;1.80;1.30;;;;;;;;;;5087070;28;20051;-60
2022/11/17 00:44:19;;;;;;;2.63;1.67;;;;;;;;;;5086811;28;20028;-59
2022/11/17 00:46:47;;;;;;;3.67;1.20;;;;;;;;;;5087094;28;20407;-60
2022/11/17 00:49:14;;;;;;;1.77;1.20;;;;;;;;;;5091763;28;20020;-60
2022/11/17 00:51:41;;;;;;;2.60;1.63;;;;;;;;;;5091767;28;20032;-62
2022/11/17 00:54:09;;;;;;;1.30;0.90;;;;;;;;;;5071934;28;20036;-60
2022/11/17 00:56:36;;;;;;;1.63;1.17;;;;;;;;;;5072730;28;20032;-60
2022/11/17 00:59:03;;;;;;;2.23;0.93;;;;;;;;;;5076029;28;20025;-60
2022/11/17 01:01:30;;;;;;;1.53;1.10;;;;;;;;;;5070424;28;20027;-60
2022/11/17 01:04:02;;;;;;;1.47;1.07;;;;;;;;;;5071186;28;20093;-60
2022/11/17 01:06:30;;;;;;;2.87;1.67;;;;;;;;;;5070992;28;20108;-60
2022/11/17 01:09:00;;;;;;;3.60;1.50;;;;;;;;;;5070929;28;20024;-60
2022/11/17 01:11:27;;;;;;;1.37;1.10;;;;;;;;;;5076334;28;20463;-60
2022/11/17 01:13:54;;;;;;;1.23;0.90;;;;;;;;;;5076771;28;20036;-60
2022/11/17 01:16:21;;;;;;;3.70;1.20;;;;;;;;;;5075426;28;20111;-60
2022/11/17 01:18:49;;;;;;;1.30;0.83;;;;;;;;;;5075649;28;20024;-60
2022/11/17 01:21:17;;;;;;;1.50;1.00;;;;;;;;;;5075640;28;20444;-59
2022/11/17 01:23:45;;;;;;;2.13;1.30;;;;;;;;;;5070760;28;20768;-60
2022/11/17 01:26:13;;;;;;;3.13;1.43;;;;;;;;;;5070516;28;20032;-59
2022/11/17 01:28:40;;;;;;;1.27;0.93;;;;;;;;;;5070543;28;20024;-59
2022/11/17 01:31:10;;;;;;;2.83;1.67;;;;;;;;;;5078848;28;20074;-60
2022/11/17 01:33:37;;;;;;;2.20;1.30;;;;;;;;;;5094614;28;20032;-60
2022/11/17 01:36:04;;;;;;;1.63;0.90;;;;;;;;;;5095660;28;20507;-60
2022/11/17 01:38:31;;;;;;;3.87;1.67;;;;;;;;;;5095628;28;20055;-60
2022/11/17 01:40:59;;;;;;;3.60;1.47;;;;;;;;;;5090236;28;20026;-60
2022/11/17 01:43:38;;;;;;;3.17;1.97;;;;;;;;;;5091984;28;20421;-60
2022/11/17 01:46:06;;;;;;;3.13;1.50;;;;;;;;;;5070726;28;20031;-60
2022/11/17 01:48:33;;;;;;;3.67;1.27;;;;;;;;;;5074277;28;20043;-60
2022/11/17 01:51:00;;;;;;;0.60;0.60;;;;;;;;;;5080632;28;20921;-59
2022/11/17 01:53:29;;;;;;;0.90;0.80;;;;;;;;;;5083346;28;20035;-62
2022/11/17 01:55:59;;;;;;;0.90;0.67;;;;;;;;;;5089739;28;20123;-59
2022/11/17 01:58:31;;;;;;;1.77;0.93;;;;;;;;;;5080998;28;20446;-60
2022/11/17 02:00:58;;;;;;;0.77;0.53;;;;;;;;;;5081745;28;20024;-60
2022/11/17 02:03:25;;;;;;;6.07;2.93;;;;;;;;;;5080624;28;20032;-61
2022/11/17 02:05:55;;;;;;;1.90;1.07;;;;;;;;;;5079109;28;20060;-60
2022/11/17 02:08:24;;;;;;;1.30;0.67;;;;;;;;;;5072576;28;20082;-61
2022/11/17 02:10:51;;;;;;;2.20;1.07;;;;;;;;;;5075451;28;20028;-60
2022/11/17 02:13:19;;;;;;;2.17;0.73;;;;;;;;;;5086546;28;20043;-60
2022/11/17 02:15:46;;;;;;;0.93;0.67;;;;;;;;;;5086112;28;20500;-60
2022/11/17 02:18:14;;;;;;;1.20;0.90;;;;;;;;;;5087148;28;20642;-60
2022/11/17 02:20:51;;;;;;;1.60;0.87;;;;;;;;;;5082655;28;20035;-60
2022/11/17 02:23:56;;;;;;;1.37;0.93;;;;;;;;;;5079249;28;20131;-59
2022/11/17 02:26:35;;;;;;;0.83;0.70;;;;;;;;;;5011579;28;20033;-60
2022/11/17 02:29:06;;;;;;;3.20;0.80;;;;;;;;;;5009609;28;20270;-60
2022/11/17 02:31:40;;;;;;;0.87;0.70;;;;;;;;;;5053197;28;20136;-60
2022/11/17 02:34:15;;;;;;;1.20;0.80;;;;;;;;;;5069221;28;20033;-60
2022/11/17 02:36:43;;;;;;;1.70;0.70;;;;;;;;;;5078780;28;20028;-60
2022/11/17 02:39:33;;;;;;;2.00;1.13;;;;;;;;;;5083712;28;20060;-59
2022/11/17 02:45:18;;;;;;;0.90;0.70;;;;;;;;;;5033239;28;20036;-60
2022/11/17 02:47:46;;;;;;;0.77;0.50;;;;;;;;;;5075150;28;20036;-60
2022/11/17 02:50:13;;;;;;;3.03;1.00;;;;;;;;;;5091115;28;20032;-60
2022/11/17 02:52:40;;;;;;;1.13;0.70;;;;;;;;;;5089746;28;20461;-59
2022/11/17 02:55:09;;;;;;;0.93;0.67;;;;;;;;;;5089188;28;20036;-60
2022/11/17 02:57:37;;;;;;;1.10;0.80;;;;;;;;;;5089145;28;20024;-59
2022/11/17 03:00:08;;;;;;;1.20;0.90;;;;;;;;;;5089386;28;20370;-59
2022/11/17 03:02:52;;;;;;;2.27;1.07;;;;;;;;;;5092826;28;20356;-59
2022/11/17 03:05:23;;;;;;;1.67;0.97;;;;;;;;;;5092164;28;20510;-59
2022/11/17 03:07:56;;;;;;;1.07;0.77;;;;;;;;;;5093789;28;20020;-60
2022/11/17 03:10:26;;;;;;;1.97;1.27;;;;;;;;;;5088184;28;20478;-60
2022/11/17 03:13:02;;;;;;;0.83;0.60;;;;;;;;;;5073590;28;20041;-59
2022/11/17 03:15:45;;;;;;;7.60;1.33;;;;;;;;;;5068389;28;20020;-60
2022/11/17 03:18:18;;;;;;;4.07;1.97;;;;;;;;;;5068567;28;20071;-60
2022/11/17 03:20:45;;;;;;;4.17;1.70;;;;;;;;;;5080291;28;20471;-59
2022/11/17 03:23:18;;;;;;;6.23;1.37;;;;;;;;;;5088983;28;20028;-61
2022/11/17 03:25:47;;;;;;;2.40;1.60;;;;;;;;;;5093754;28;20425;-59
2022/11/17 03:28:17;;;;;;;3.73;2.03;;;;;;;;;;5087624;28;20356;-59
2022/11/17 03:30:45;;;;;;;6.67;3.73;;;;;;;;;;5073207;28;20479;-60
2022/11/17 03:33:15;;;;;;;5.03;2.70;;;;;;;;;;5076883;28;20036;-59
2022/11/17 03:35:43;;;;;;;9.63;2.70;;;;;;;;;;5072069;28;20472;-59
2022/11/17 03:38:12;;;;;;;3.83;2.13;;;;;;;;;;5075210;28;20027;-60
2022/11/17 03:40:45;;;;;;;2.40;1.73;;;;;;;;;;5088402;28;20015;-60
2022/11/17 03:43:13;;;;;;;2.50;1.83;;;;;;;;;;5088164;28;20024;-60
2022/11/17 03:45:42;;;;;;;14.47;2.73;;;;;;;;;;5089095;28;20035;-60
2022/11/17 03:48:08;;;;;;;4.17;2.10;;;;;;;;;;5092830;28;20027;-59
2022/11/17 03:50:43;;;;;;;3.13;2.20;;;;;;;;;;5083876;28;20016;-59
2022/11/17 03:53:10;;;;;;;2.35;1.58;;;;;;;;;;5072664;28;20028;-59
2022/11/17 03:55:41;;;;;;;5.50;2.77;;;;;;;;;;5072884;28;20467;-59
2022/11/17 03:58:12;;;;;;;4.97;2.23;;;;;;;;;;5071214;28;20376;-60
2022/11/17 04:00:40;;;;;;;7.83;3.40;;;;;;;;;;5068085;28;20475;-60
2022/11/17 04:03:07;;;;;;;2.47;1.67;;;;;;;;;;5067770;28;20100;-60
2022/11/17 04:05:34;;;;;;;5.87;1.60;;;;;;;;;;5067830;28;20578;-59
2022/11/17 04:08:00;;;;;;;5.73;2.93;;;;;;;;;;5068559;28;20024;-59
2022/11/17 04:10:27;;;;;;;3.03;2.47;;;;;;;;;;5078747;28;20016;-59
2022/11/17 04:15:57;;;;;;;7.60;2.97;;;;;;;;;;5092595;28;20035;-60
2022/11/17 04:18:25;;;;;;;2.27;1.80;;;;;;;;;;5092741;28;20481;-59
2022/11/17 04:20:53;;;;;;;2.47;1.97;;;;;;;;;;5090379;28;20028;-59
2022/11/17 04:23:20;;;;;;;1.90;1.50;;;;;;;;;;5087614;28;20119;-59
2022/11/17 04:28:36;;;;;;;5.30;2.77;;;;;;;;;;5067713;28;20069;-59
2022/11/17 04:31:06;;;;;;;3.87;2.40;;;;;;;;;;5069739;28;20029;-59
2022/11/17 04:33:33;;;;;;;3.47;2.03;;;;;;;;;;5072129;28;20383;-60
2022/11/17 04:36:00;;;;;;;15.10;1.50;;;;;;;;;;5072334;28;20095;-60
2022/11/17 04:38:27;;;;;;;3.13;1.57;;;;;;;;;;5076923;28;20493;-60
2022/11/17 04:43:45;;;;;;;5.00;2.80;;;;;;;;;;5069440;28;20444;-60
2022/11/17 04:46:11;;;;;;;3.07;1.90;;;;;;;;;;5071824;28;20020;-60
2022/11/17 04:48:38;;;;;;;6.47;2.43;;;;;;;;;;5067257;28;20039;-60
2022/11/17 04:51:05;;;;;;;2.67;2.23;;;;;;;;;;5070460;28;20032;-59
2022/11/17 04:53:31;;;;;;;3.30;2.00;;;;;;;;;;5070396;28;20028;-60
2022/11/17 04:56:02;;;;;;;7.37;3.07;;;;;;;;;;5072342;28;20462;-60
2022/11/17 04:58:28;;;;;;;7.67;3.43;;;;;;;;;;5071991;28;20024;-60
2022/11/17 05:01:11;;;;;;;4.80;3.23;;;;;;;;;;5072105;28;20494;-59
2022/11/17 05:03:40;;;;;;;6.60;2.33;;;;;;;;;;5071926;28;20036;-59
2022/11/17 05:06:07;;;;;;;2.20;1.57;;;;;;;;;;5068401;28;20103;-59
2022/11/17 05:08:37;;;;;;;1.77;1.47;;;;;;;;;;5070015;28;20028;-60
2022/11/17 05:13:50;;;;;;;4.90;2.43;;;;;;;;;;5087010;28;20047;-59
2022/11/17 05:19:03;;;;;;;7.67;2.50;;;;;;;;;;5092285;28;20490;-60
2022/11/17 05:21:30;;;;;;;4.13;2.13;;;;;;;;;;5092061;28;20073;-60
2022/11/17 05:23:57;;;;;;;7.03;2.17;;;;;;;;;;5092090;28;20048;-60
2022/11/17 05:26:27;;;;;;;5.40;2.97;;;;;;;;;;5091763;28;20047;-59
2022/11/17 05:28:54;;;;;;;2.37;1.60;;;;;;;;;;5080460;28;20415;-60
2022/11/17 05:31:21;;;;;;;5.90;3.23;;;;;;;;;;5070912;28;20032;-60
2022/11/17 05:33:48;;;;;;;4.77;1.53;;;;;;;;;;5086568;28;20032;-60
2022/11/17 05:36:15;;;;;;;1.53;1.17;;;;;;;;;;5079870;28;20407;-59
2022/11/17 05:38:41;;;;;;;3.57;2.70;;;;;;;;;;5071327;28;20489;-59
2022/11/17 05:41:08;;;;;;;3.10;2.13;;;;;;;;;;5071654;28;20031;-60
2022/11/17 05:43:35;;;;;;;1.37;1.20;;;;;;;;;;5073649;28;20028;-59
2022/11/17 05:46:02;;;;;;;2.87;2.30;;;;;;;;;;5075530;28;20025;-59
2022/11/17 05:48:29;;;;;;;4.50;2.73;;;;;;;;;;5075372;28;20021;-59
2022/11/17 05:50:56;;;;;;;1.80;1.57;;;;;;;;;;5070593;28;20032;-59
2022/11/17 05:53:23;;;;;;;2.57;1.87;;;;;;;;;;5070563;28;20029;-60
2022/11/17 05:55:50;;;;;;;3.47;2.13;;;;;;;;;;5070235;28;20035;-59
2022/11/17 05:58:20;;;;;;;3.57;2.43;;;;;;;;;;5070043;28;20024;-60
2022/11/17 06:00:47;;;;;;;2.43;1.97;;;;;;;;;;5073515;28;20024;-60
2022/11/17 06:03:17;;;;;;;6.10;2.33;;;;;;;;;;5075088;28;20020;-60
2022/11/17 06:05:44;;;;;;;2.90;2.23;;;;;;;;;;5075076;28;20059;-59
2022/11/17 06:08:11;;;;;;;2.50;1.97;;;;;;;;;;5074906;28;20039;-59
2022/11/17 06:10:37;;;;;;;5.83;2.80;;;;;;;;;;5082947;28;20019;-59
2022/11/17 06:13:04;;;;;;;3.07;2.10;;;;;;;;;;5089801;28;20040;-60
2022/11/17 06:15:31;;;;;;;3.90;2.90;;;;;;;;;;5071813;28;20434;-60
2022/11/17 06:18:00;;;;;;;2.87;1.67;;;;;;;;;;5069680;28;20021;-60
2022/11/17 06:20:30;;;;;;;1.23;1.07;;;;;;;;;;5069846;28;20025;-59
2022/11/17 06:22:57;;;;;;;2.20;1.73;;;;;;;;;;5073278;28;20029;-58
2022/11/17 06:25:24;;;;;;;3.83;2.70;;;;;;;;;;5074214;28;20024;-58
2022/11/17 06:27:51;;;;;;;5.80;2.80;;;;;;;;;;5074626;28;20107;-59
2022/11/17 06:30:18;;;;;;;3.33;2.20;;;;;;;;;;5074088;28;20017;-58
2022/11/17 06:32:45;;;;;;;5.43;3.03;;;;;;;;;;5080728;28;20565;-59
2022/11/17 06:35:13;;;;;;;2.23;1.53;;;;;;;;;;5078970;28;20078;-59
2022/11/17 06:37:40;;;;;;;4.53;2.80;;;;;;;;;;5069044;28;20062;-60
2022/11/17 06:40:07;;;;;;;2.60;1.93;;;;;;;;;;5071021;28;20023;-59
2022/11/17 06:45:18;;;;;;;1.95;1.65;;;;;;;;;;5073030;28;20553;-59
2022/11/17 06:47:45;;;;;;;3.30;1.73;;;;;;;;;;5089369;28;20386;-59
2022/11/17 06:50:11;;;;;;;4.37;1.87;;;;;;;;;;5094517;28;20425;-59
2022/11/17 06:52:38;;;;;;;7.50;4.00;;;;;;;;;;5094086;28;20483;-59
2022/11/17 06:55:05;;;;;;;5.37;3.00;;;;;;;;;;5093732;28;20072;-60
2022/11/17 06:57:32;;;;;;;3.97;2.10;;;;;;;;;;5089641;28;20474;-59
2022/11/17 06:59:58;;;;;;;5.13;2.17;;;;;;;;;;5088391;28;20028;-60
2022/11/17 07:02:25;;;;;;;2.83;2.03;;;;;;;;;;5088802;28;20024;-60
2022/11/17 07:04:52;;;;;;;4.20;2.93;;;;;;;;;;5088603;28;20038;-60
2022/11/17 07:07:18;;;;;;;3.90;1.93;;;;;;;;;;5092348;28;20079;-60
2022/11/17 07:09:45;;;;;;;2.30;1.67;;;;;;;;;;5092967;28;20032;-59
2022/11/17 07:12:12;;;;;;;2.93;2.07;;;;;;;;;;5093848;28;20028;-60
2022/11/17 07:14:38;;;;;;;4.77;3.37;;;;;;;;;;5093572;28;20107;-59
2022/11/17 07:17:06;;;;;;;24.30;2.67;;;;;;;;;;5093320;28;20024;-60
2022/11/17 07:19:33;;;;;;;3.43;2.20;;;;;;;;;;5089747;28;20048;-60
2022/11/17 07:21:59;;;;;;;5.00;3.13;;;;;;;;;;5088513;28;20447;-59
2022/11/17 07:24:26;;;;;;;5.17;1.90;;;;;;;;;;5088535;28;20024;-59
2022/11/17 07:26:53;;;;;;;1.43;1.13;;;;;;;;;;5088396;28;20425;-59
2022/11/17 07:29:19;;;;;;;2.13;1.50;;;;;;;;;;5091462;28;20471;-59
2022/11/17 07:31:46;;;;;;;3.23;2.43;;;;;;;;;;5091360;28;20028;-59
2022/11/17 07:34:13;;;;;;;7.63;2.90;;;;;;;;;;5093067;28;20544;-59
2022/11/17 07:36:39;;;;;;;5.23;3.00;;;;;;;;;;5093549;28;20020;-59
2022/11/17 07:39:06;;;;;;;5.07;2.80;;;;;;;;;;5093383;28;20099;-59
2022/11/17 07:41:33;;;;;;;3.30;1.93;;;;;;;;;;5090044;28;20051;-59
2022/11/17 07:43:59;;;;;;;1.57;1.00;;;;;;;;;;5088073;28;20028;-59
2022/11/17 07:46:26;;;;;;;4.87;2.20;;;;;;;;;;5088088;28;20020;-59
2022/11/17 07:48:54;;;;;;;2.60;1.87;;;;;;;;;;5087850;28;20032;-60
2022/11/17 07:51:20;;;;;;;2.93;2.13;;;;;;;;;;5078731;28;20107;-60
2022/11/17 07:53:47;;;;;;;2.03;1.37;;;;;;;;;;5072798;28;20036;-60
2022/11/17 07:56:14;;;;;;;1.23;1.07;;;;;;;;;;5072666;28;20082;-59
2022/11/17 07:58:41;;;;;;;1.77;1.43;;;;;;;;;;5072732;28;20020;-60
2022/11/17 08:01:10;;;;;;;2.27;1.57;;;;;;;;;;5072651;28;20020;-59
2022/11/17 08:03:37;;;;;;;3.73;1.73;;;;;;;;;;5069883;28;20383;-60
2022/11/17 08:06:04;;;;;;;3.30;1.43;;;;;;;;;;5066307;28;20024;-59
2022/11/17 08:08:31;;;;;;;11.43;2.87;;;;;;;;;;5067180;28;20032;-59
2022/11/17 08:11:05;;;;;;;4.90;2.37;;;;;;;;;;5071143;28;20024;-59
2022/11/17 08:13:32;;;;;;;3.00;1.70;;;;;;;;;;5089913;28;20032;-60
2022/11/17 08:15:59;;;;;;;3.43;2.37;;;;;;;;;;5092731;28;20024;-59
2022/11/17 08:18:26;;;;;;;4.03;2.20;;;;;;;;;;5092749;28;20455;-59
2022/11/17 08:20:53;;;;;;;4.13;2.73;;;;;;;;;;5092253;28;20032;-59
2022/11/17 08:23:19;;;;;;;3.00;2.00;;;;;;;;;;5092536;28;20048;-59
2022/11/17 08:25:46;;;;;;;5.47;2.10;;;;;;;;;;5089939;28;20020;-59
2022/11/17 08:28:13;;;;;;;4.27;2.97;;;;;;;;;;5087295;28;20016;-61
2022/11/17 08:30:39;;;;;;;4.90;2.57;;;;;;;;;;5087389;28;20024;-59
2022/11/17 08:33:06;;;;;;;24.23;3.37;;;;;;;;;;5068604;28;20028;-59
2022/11/17 08:35:33;;;;;;;3.10;2.17;;;;;;;;;;5069285;28;20028;-59
2022/11/17 08:37:59;;;;;;;2.40;1.60;;;;;;;;;;5071801;28;20356;-59
2022/11/17 08:40:26;;;;;;;3.07;1.90;;;;;;;;;;5064021;28;20394;-59
2022/11/17 08:42:54;;;;;;;1.43;1.03;;;;;;;;;;5092460;28;20038;-59
2022/11/17 08:45:21;;;;;;;2.30;1.77;;;;;;;;;;5092340;28;20475;-59
2022/11/17 08:47:47;;;;;;;7.10;2.93;;;;;;;;;;5090138;28;20020;-59
2022/11/17 08:50:16;;;;;;;1.87;1.53;;;;;;;;;;5087188;28;20025;-59
2022/11/17 08:52:44;;;;;;;2.73;1.80;;;;;;;;;;5086876;28;20081;-59
2022/11/17 08:55:11;;;;;;;1.67;1.37;;;;;;;;;;5078369;28;20071;-59
2022/11/17 08:57:37;;;;;;;4.80;2.27;;;;;;;;;;5068198;28;20465;-59
2022/11/17 09:00:05;;;;;;;1.50;1.40;;;;;;;;;;5072242;28;20494;-59
2022/11/17 09:02:32;;;;;;;2.97;1.83;;;;;;;;;;5071883;28;20446;-59
2022/11/17 09:04:58;;;;;;;1.10;1.00;;;;;;;;;;5071996;28;20078;-59
2022/11/17 09:07:25;;;;;;;4.10;2.20;;;;;;;;;;5072066;28;20052;-59
2022/11/17 09:09:52;;;;;;;1.03;0.73;;;;;;;;;;5075279;28;20028;-59
2022/11/17 09:12:18;;;;;;;1.60;1.13;;;;;;;;;;5086913;28;20027;-59
2022/11/17 09:14:45;;;;;;;2.43;1.70;;;;;;;;;;5086731;28;20265;-59
2022/11/17 09:17:12;;;;;;;2.87;2.13;;;;;;;;;;5087225;28;20066;-59
2022/11/17 09:19:38;;;;;;;2.40;1.40;;;;;;;;;;5091718;28;20039;-59
2022/11/17 09:22:06;;;;;;;4.17;2.53;;;;;;;;;;5096015;28;20154;-59
2022/11/17 09:24:32;;;;;;;4.20;2.43;;;;;;;;;;5096029;28;20016;-59
2022/11/17 09:27:01;;;;;;;3.20;2.00;;;;;;;;;;5093742;28;20020;-59
2022/11/17 09:29:28;;;;;;;2.10;1.43;;;;;;;;;;5086649;28;20025;-59
2022/11/17 09:31:55;;;;;;;2.40;1.63;;;;;;;;;;5073973;28;20091;-59
2022/11/17 09:34:22;;;;;;;4.07;1.93;;;;;;;;;;5078440;28;20036;-59
2022/11/17 09:36:48;;;;;;;1.33;1.10;;;;;;;;;;5090776;28;20036;-59
2022/11/17 09:39:15;;;;;;;1.43;1.13;;;;;;;;;;5090516;28;20026;-59
2022/11/17 09:42:02;;;;;;;1.37;1.13;;;;;;;;;;5091184;28;20046;-59
2022/11/17 09:44:29;;;;;;;2.93;1.87;;;;;;;;;;5095094;28;20028;-59
2022/11/17 09:47:07;;;;;;;2.30;1.70;;;;;;;;;;5095720;28;20103;-59
2022/11/17 09:49:40;;;;;;;2.90;2.03;;;;;;;;;;5095322;28;20485;-59
2022/11/17 09:52:18;;;;;;;1.13;0.77;;;;;;;;;;5092437;28;20052;-59
2022/11/17 09:54:57;;;;;;;3.37;2.10;;;;;;;;;;5072211;28;20029;-59
2022/11/17 09:57:30;;;;;;;2.83;2.00;;;;;;;;;;5069882;28;20491;-59
2022/11/17 10:00:01;;;;;;;1.83;1.60;;;;;;;;;;5069507;28;20104;-59
2022/11/17 10:02:28;;;;;;;2.50;1.50;;;;;;;;;;5069799;28;20029;-59
2022/11/17 10:04:55;;;;;;;1.40;1.30;;;;;;;;;;5072530;28;20048;-59
2022/11/17 10:07:22;;;;;;;1.47;1.10;;;;;;;;;;5074733;28;20089;-60
2022/11/17 10:09:49;;;;;;;1.77;1.43;;;;;;;;;;5074792;28;20030;-59
2022/11/17 10:12:19;;;;;;;1.63;1.50;;;;;;;;;;5074798;28;20056;-60
2022/11/17 10:14:46;;;;;;;1.87;1.23;;;;;;;;;;5074406;28;20475;-59
2022/11/17 10:17:13;;;;;;;1.70;1.27;;;;;;;;;;5071515;28;20382;-60
2022/11/17 10:19:40;;;;;;;1.30;1.07;;;;;;;;;;5069451;28;20143;-59
2022/11/17 10:22:07;;;;;;;1.50;1.30;;;;;;;;;;5069309;28;20025;-59
2022/11/17 10:24:41;;;;;;;3.00;2.20;;;;;;;;;;5069461;28;20055;-59
2022/11/17 10:27:17;;;;;;;1.90;1.45;;;;;;;;;;5072210;28;20055;-58
2022/11/17 10:30:02;;;;;;;2.27;1.60;;;;;;;;;;5073469;28;20417;-60
2022/11/17 10:32:30;;;;;;;10.60;2.42;;;;;;;;;;5074399;28;20077;-59
2022/11/17 10:35:12;;;;;;;1.53;1.30;;;;;;;;;;5091960;28;20471;-59
2022/11/17 10:37:42;;;;;;;2.43;1.67;;;;;;;;;;5094505;28;20030;-59
2022/11/17 10:40:28;;;;;;;2.07;1.27;;;;;;;;;;5089665;28;20482;-59
2022/11/17 10:42:57;;;;;;;1.60;1.13;;;;;;;;;;5089227;28;20024;-59
2022/11/17 10:45:24;;;;;;;1.37;1.23;;;;;;;;;;5089163;28;20051;-59
2022/11/17 10:47:51;;;;;;;1.57;1.37;;;;;;;;;;5089224;28;20020;-59
2022/11/17 10:50:20;;;;;;;2.57;1.60;;;;;;;;;;5094053;28;20024;-59
2022/11/17 10:52:47;;;;;;;5.57;2.70;;;;;;;;;;5094087;28;20024;-59
2022/11/17 10:55:25;;;;;;;3.37;1.67;;;;;;;;;;5077294;28;20031;-59
2022/11/17 10:57:54;;;;;;;0.93;0.80;;;;;;;;;;5073947;28;20111;-59
2022/11/17 11:00:34;;;;;;;3.50;2.27;;;;;;;;;;5073035;28;20028;-59
2022/11/17 11:03:20;;;;;;;1.57;1.17;;;;;;;;;;5068725;28;20103;-59
2022/11/17 11:06:01;;;;;;;2.70;1.80;;;;;;;;;;5068834;28;20101;-59
2022/11/17 11:08:34;;;;;;;3.40;0.87;;;;;;;;;;5068617;28;20527;-59
2022/11/17 11:11:02;;;;;;;1.77;1.27;;;;;;;;;;5070041;28;20025;-59
2022/11/17 11:13:44;;;;;;;3.50;2.63;;;;;;;;;;5073724;28;20479;-59
2022/11/17 11:16:11;;;;;;;3.60;2.07;;;;;;;;;;5092893;28;20031;-59
2022/11/17 11:18:38;;;;;;;4.63;2.80;;;;;;;;;;5093683;28;20048;-59
2022/11/17 11:21:23;;;;;;;2.90;2.07;;;;;;;;;;5093449;28;20110;-59
2022/11/17 11:23:55;;;;;;;10.00;4.22;;;;;;;;;;5090517;28;20124;-59
2022/11/17 11:26:26;;;;;;;6.03;3.30;;;;;;;;;;5088164;28;20016;-58
2022/11/17 11:28:59;;;;;;;4.97;3.50;;;;;;;;;;5088291;28;20025;-59
2022/11/17 11:31:39;;;;;;;4.03;2.80;;;;;;;;;;5088432;28;20056;-59
2022/11/17 11:34:09;;;;;;;2.77;2.07;;;;;;;;;;5091728;28;20099;-59
2022/11/17 11:36:50;;;;;;;2.23;1.73;;;;;;;;;;5074255;28;20112;-58
2022/11/17 11:39:35;;;;;;;3.87;2.03;;;;;;;;;;5073292;28;20435;-59
2022/11/17 11:42:10;;;;;;;2.00;1.80;;;;;;;;;;5073052;28;20028;-58
2022/11/17 11:44:55;;;;;;;5.97;3.30;;;;;;;;;;5072557;28;20021;-58
2022/11/17 11:47:34;;;;;;;3.90;3.17;;;;;;;;;;5068257;28;20092;-59
2022/11/17 11:50:09;;;;;;;2.40;2.10;;;;;;;;;;5067662;28;20024;-59
2022/11/17 11:52:39;;;;;;;2.83;2.27;;;;;;;;;;5067321;28;20099;-59
2022/11/17 11:55:14;;;;;;;3.17;1.70;;;;;;;;;;5072370;28;20105;-59
2022/11/17 11:57:46;;;;;;;2.87;2.20;;;;;;;;;;5093368;28;20024;-58
2022/11/17 12:00:16;;;;;;;1.97;1.73;;;;;;;;;;5093101;28;20261;-59
2022/11/17 12:03:01;;;;;;;2.40;1.43;;;;;;;;;;5092759;28;20022;-59
2022/11/17 12:05:34;;;;;;;2.33;1.60;;;;;;;;;;5092872;28;20056;-59
2022/11/17 12:08:07;;;;;;;4.93;2.03;;;;;;;;;;5090140;28;20020;-59
2022/11/17 12:10:48;;;;;;;3.63;2.30;;;;;;;;;;5087536;28;20414;-60
2022/11/17 12:13:17;;;;;;;0.90;0.83;;;;;;;;;;5087577;28;20039;-59
2022/11/17 12:15:43;;;;;;;2.43;2.00;;;;;;;;;;5079456;28;20446;-59
2022/11/17 12:18:10;;;;;;;2.20;1.70;;;;;;;;;;5070133;28;20150;-59
2022/11/17 12:20:37;;;;;;;1.53;1.43;;;;;;;;;;5072233;28;20513;-59
2022/11/17 12:23:10;;;;;;;2.93;2.07;;;;;;;;;;5072393;28;20024;-59
2022/11/17 12:25:43;;;;;;;3.10;2.13;;;;;;;;;;5072200;28;20099;-59
2022/11/17 12:28:28;;;;;;;1.93;1.33;;;;;;;;;;5072444;28;20028;-59
2022/11/17 12:30:56;;;;;;;2.30;1.73;;;;;;;;;;5068183;28;20434;-59
2022/11/17 12:33:23;;;;;;;2.03;1.63;;;;;;;;;;5066936;28;20048;-59
2022/11/17 12:36:16;;;;;;;2.70;1.33;;;;;;;;;;5073341;28;20024;-59
2022/11/17 12:38:42;;;;;;;2.00;1.33;;;;;;;;;;5082616;28;20040;-59
2022/11/17 12:41:09;;;;;;;1.00;0.90;;;;;;;;;;5091697;28;20282;-59
2022/11/17 12:43:36;;;;;;;1.47;1.17;;;;;;;;;;5092343;28;20024;-59
2022/11/17 12:46:03;;;;;;;6.60;1.80;;;;;;;;;;5092029;28;20024;-59
2022/11/17 12:48:31;;;;;;;6.03;1.37;;;;;;;;;;5092726;28;20401;-58
2022/11/17 12:51:07;;;;;;;6.23;1.47;;;;;;;;;;5092242;28;20016;-59
2022/11/17 12:53:48;;;;;;;4.23;1.97;;;;;;;;;;5089288;28;20065;-59
2022/11/17 12:56:18;;;;;;;1.33;1.07;;;;;;;;;;5089001;28;20032;-59
2022/11/17 12:58:45;;;;;;;1.67;1.00;;;;;;;;;;5090989;28;20277;-59
2022/11/17 13:01:11;;;;;;;1.07;0.87;;;;;;;;;;5091230;28;20048;-59
2022/11/17 13:03:52;;;;;;;0.93;0.80;;;;;;;;;;5096362;28;20298;-59
2022/11/17 13:06:19;;;;;;;1.50;1.20;;;;;;;;;;5096385;28;20249;-59
2022/11/17 13:08:59;;;;;;;2.23;1.77;;;;;;;;;;5096089;28;20023;-59
2022/11/17 13:11:26;;;;;;;2.13;1.23;;;;;;;;;;5096324;28;20362;-59
2022/11/17 13:14:28;;;;;;;5.57;1.20;;;;;;;;;;5094711;28;20295;-58
2022/11/17 13:16:55;;;;;;;9.60;2.27;;;;;;;;;;4988019;28;20113;-59
2022/11/17 13:19:38;;;;;;;6.33;1.40;;;;;;;;;;5054737;28;20071;-59
2022/11/17 13:22:10;;;;;;;1.57;1.13;;;;;;;;;;5070480;28;20162;-58
2022/11/17 13:24:38;;;;;;;3.53;1.87;;;;;;;;;;5072572;28;20020;-58
2022/11/17 13:27:23;;;;;;;2.67;2.03;;;;;;;;;;5083288;28;20016;-61
2022/11/17 13:30:10;;;;;;;7.57;2.58;;;;;;;;;;5075591;28;20513;-59
2022/11/17 13:32:38;;;;;;;3.47;1.97;;;;;;;;;;5074924;28;20062;-58
2022/11/17 13:35:17;;;;;;;3.50;2.57;;;;;;;;;;5075384;28;20370;-59
2022/11/17 13:37:44;;;;;;;4.17;2.40;;;;;;;;;;5070634;28;20029;-58
2022/11/17 13:40:20;;;;;;;18.23;2.13;;;;;;;;;;5070203;28;20024;-59
2022/11/17 13:42:47;;;;;;;2.50;1.90;;;;;;;;;;5076235;28;20020;-58
2022/11/17 13:45:15;;;;;;;9.60;1.97;;;;;;;;;;5090330;28;20054;-58
2022/11/17 13:47:42;;;;;;;1.70;1.47;;;;;;;;;;5094955;28;20080;-58
2022/11/17 13:50:21;;;;;;;1.53;1.10;;;;;;;;;;5095435;28;20028;-58
2022/11/17 13:52:52;;;;;;;2.20;1.67;;;;;;;;;;5095436;28;20379;-58
2022/11/17 13:55:20;;;;;;;2.87;1.50;;;;;;;;;;5095052;28;20032;-59
2022/11/17 13:58:12;;;;;;;8.97;2.27;;;;;;;;;;5095290;28;20415;-59
2022/11/17 14:00:39;;;;;;;1.20;1.07;;;;;;;;;;5068461;28;20127;-59
2022/11/17 14:03:25;;;;;;;3.50;1.90;;;;;;;;;;5069852;28;20052;-58
2022/11/17 14:05:56;;;;;;;2.27;1.50;;;;;;;;;;5069497;28;20029;-59
2022/11/17 14:08:26;;;;;;;1.70;0.97;;;;;;;;;;5071099;28;20020;-59
2022/11/17 14:11:04;;;;;;;3.40;1.70;;;;;;;;;;5087608;28;20016;-59
2022/11/17 14:13:32;;;;;;;1.53;1.20;;;;;;;;;;5094711;28;20458;-59
2022/11/17 14:15:59;;;;;;;0.83;0.70;;;;;;;;;;5095023;28;20458;-59
2022/11/17 14:18:28;;;;;;;2.13;1.60;;;;;;;;;;5095016;28;20049;-59
2022/11/17 14:21:07;;;;;;;4.27;1.10;;;;;;;;;;5092412;28;20036;-59
2022/11/17 14:23:34;;;;;;;1.17;0.90;;;;;;;;;;5085517;28;20118;-57
2022/11/17 14:26:01;;;;;;;0.93;0.43;;;;;;;;;;5070470;28;20023;-58
2022/11/17 14:28:27;;;;;;;2.83;1.10;;;;;;;;;;5084329;28;20036;-60
2022/11/17 14:30:55;;;;;;;3.07;1.37;;;;;;;;;;5091619;28;20043;-60
2022/11/17 14:33:22;;;;;;;2.60;1.00;;;;;;;;;;5074445;28;20036;-59
2022/11/17 14:35:51;;;;;;;1.13;0.90;;;;;;;;;;5074648;28;20028;-59
2022/11/17 14:38:19;;;;;;;0.67;0.67;;;;;;;;;;5085528;28;20082;-59
2022/11/17 14:40:47;;;;;;;1.07;0.80;;;;;;;;;;5083522;28;20040;-59
2022/11/17 14:43:14;;;;;;;1.60;1.00;;;;;;;;;;5092210;28;20030;-60
2022/11/17 14:45:41;;;;;;;1.60;1.00;;;;;;;;;;5089637;28;20028;-59
2022/11/17 14:48:10;;;;;;;0.80;0.70;;;;;;;;;;5089562;28;20024;-60
2022/11/17 14:50:37;;;;;;;3.37;0.60;;;;;;;;;;5089368;28;20039;-59
2022/11/17 14:53:04;;;;;;;2.07;1.13;;;;;;;;;;5091040;28;20035;-58
2022/11/17 14:55:31;;;;;;;2.33;0.93;;;;;;;;;;5093958;28;20036;-59
2022/11/17 14:57:57;;;;;;;1.83;0.60;;;;;;;;;;5080599;28;20023;-58
2022/11/17 15:00:24;;;;;;;9.37;0.83;;;;;;;;;;5074071;28;20020;-59
2022/11/17 15:02:51;;;;;;;0.97;0.63;;;;;;;;;;5074069;28;20024;-61
2022/11/17 15:05:18;;;;;;;0.87;0.57;;;;;;;;;;5071861;28;20025;-59
2022/11/17 15:07:45;;;;;;;1.20;0.60;;;;;;;;;;5068884;28;20471;-60
2022/11/17 15:10:12;;;;;;;1.73;1.03;;;;;;;;;;5068825;28;20052;-59
2022/11/17 15:12:38;;;;;;;3.40;1.00;;;;;;;;;;5068398;28;20498;-60
2022/11/17 15:15:05;;;;;;;2.93;1.00;;;;;;;;;;5078427;28;20075;-60
2022/11/17 15:17:32;;;;;;;9.67;5.00;;;;;;;;;;5093726;28;20387;-57
2022/11/17 15:19:59;;;;;;;1.37;0.80;;;;;;;;;;5093713;28;20128;-60
2022/11/17 15:22:25;;;;;;;0.90;0.80;;;;;;;;;;5089301;28;20032;-60
2022/11/17 15:24:52;;;;;;;1.13;0.87;;;;;;;;;;5073413;28;20021;-60
2022/11/17 15:27:19;;;;;;;1.33;0.90;;;;;;;;;;5071620;28;20071;-60